»·PEaware :: N321TB KOKB-KSMX

N321TB :: KOKB-KSMX

FLIGHT INFORMATION

Flight Status: Arrived
Operator: Privately registered:
United States
More flights under this callsign
Pilot: Martin K. (31672)
Aircraft: CESSNA 172 SKYHAWK
(C172)
More flights by this aircraft type
Origin: KOKB Oceanside Mun
United States
Destination: KSMX Santa Maria Pub/Capt Hancock
United States
More flights between these airports :: More routes between these airports
Route: OCN V165 LAX V299 VTU V25 RZS V12 GVO V27 AFOXY
File this flight plan on PilotEdge
Remarks:
Altitude:
(Current/Filed)
8,000ft
Speed:
(Current/Filed)
120kts
Departed: 21-Nov-20 02:12 PM
Arrived: 21-Nov-20 03:48 PM
Distance/Time
Traveled:
184nm/1:36
Distance/Time
To Go:
Arrived

Flight Plot

Page will automatically refresh every two minutes.

Flight plan parsing failed; only flown route is shown


Map Options




Map Legend


Flown Route
Filed Route
Departure Airport
Arrival Airport
Navaid (VOR, NDB)
Fix

Horizontal Profiles

Position Reports

Time Latitude Longitude Heading Altitude Ground
Speed
21-Nov-20 13:53 33.217368 -117.351636 78 31ft 0kts
21-Nov-20 13:54 33.217368 -117.351630 78 31ft 0kts
21-Nov-20 13:55 33.217368 -117.351630 78 31ft 0kts
21-Nov-20 13:56 33.217368 -117.351630 78 31ft 0kts
21-Nov-20 13:57 33.217368 -117.351630 78 31ft 0kts
21-Nov-20 13:58 33.217368 -117.351630 78 31ft 0kts
21-Nov-20 13:59 33.217368 -117.351630 78 31ft 0kts
21-Nov-20 14:00 33.217368 -117.351630 78 31ft 0kts
21-Nov-20 14:01 33.217368 -117.351630 78 31ft 0kts
21-Nov-20 14:03 33.217368 -117.351630 78 31ft 0kts
21-Nov-20 14:04 33.217368 -117.351630 78 31ft 0kts
21-Nov-20 14:05 33.217368 -117.351630 78 31ft 0kts
21-Nov-20 14:06 33.217368 -117.351630 78 31ft 0kts
21-Nov-20 14:07 33.217393 -117.351548 58 31ft 3kts
21-Nov-20 14:08 33.218166 -117.348279 82 31ft 13kts
21-Nov-20 14:09 33.218277 -117.347412 57 31ft 0kts
21-Nov-20 14:10 33.218277 -117.347412 57 31ft 0kts
21-Nov-20 14:11 33.218540 -117.347753 258 31ft 18kts
21-Nov-20 14:12 33.216635 -117.371706 259 614ft 87kts
21-Nov-20 14:13 33.218114 -117.401260 308 1328ft 99kts
21-Nov-20 14:14 33.239515 -117.421052 319 2106ft 96kts
21-Nov-20 14:15 33.259817 -117.441380 309 2826ft 96kts
21-Nov-20 14:16 33.279271 -117.463694 308 3468ft 100kts
21-Nov-20 14:17 33.300707 -117.488144 310 3968ft 110kts
21-Nov-20 14:17 33.319108 -117.509340 310 4524ft 109kts
21-Nov-20 14:19 33.343429 -117.537917 308 5404ft 100kts
21-Nov-20 14:19 33.359278 -117.556716 307 6047ft 92kts
21-Nov-20 14:20 33.376565 -117.577469 306 6750ft 85kts
21-Nov-20 14:22 33.398069 -117.602340 309 7319ft 99kts
21-Nov-20 14:22 33.414852 -117.621673 308 7725ft 101kts
21-Nov-20 14:24 33.440249 -117.650971 310 7980ft 121kts
21-Nov-20 14:24 33.461006 -117.674993 310 7980ft 125kts
21-Nov-20 14:26 33.490097 -117.709009 310 7980ft 125kts
21-Nov-20 14:26 33.510929 -117.733422 310 7980ft 125kts
21-Nov-20 14:27 33.532454 -117.765860 301 7980ft 124kts
21-Nov-20 14:28 33.552752 -117.799312 301 7979ft 124kts
21-Nov-20 14:29 33.573079 -117.832752 301 7979ft 124kts
21-Nov-20 14:30 33.593318 -117.866266 301 7979ft 124kts
21-Nov-20 14:31 33.613631 -117.899780 301 7979ft 124kts
21-Nov-20 14:32 33.634010 -117.933370 301 7979ft 124kts
21-Nov-20 14:33 33.654383 -117.967187 300 7979ft 125kts
21-Nov-20 14:34 33.674746 -118.000948 301 7979ft 125kts
21-Nov-20 14:35 33.695272 -118.034894 301 7979ft 125kts
21-Nov-20 14:36 33.715812 -118.068870 301 7979ft 125kts
21-Nov-20 14:37 33.736384 -118.102924 301 7979ft 125kts
21-Nov-20 14:38 33.756634 -118.136793 300 7979ft 124kts
21-Nov-20 14:39 33.776830 -118.170595 301 7979ft 123kts
21-Nov-20 14:40 33.796929 -118.204027 301 7979ft 123kts
21-Nov-20 14:41 33.816808 -118.237354 301 7978ft 122kts
21-Nov-20 14:42 33.836641 -118.270508 301 7978ft 121kts
21-Nov-20 14:43 33.856356 -118.303475 301 7978ft 121kts
21-Nov-20 14:44 33.875992 -118.336344 301 7978ft 121kts
21-Nov-20 14:45 33.896152 -118.370092 302 7817ft 125kts
21-Nov-20 14:46 33.916110 -118.403436 301 7823ft 121kts
21-Nov-20 14:47 33.934257 -118.437557 290 7823ft 120kts
21-Nov-20 14:48 33.946730 -118.475027 288 7823ft 120kts
21-Nov-20 14:49 33.958864 -118.512769 288 7823ft 120kts
21-Nov-20 14:50 33.970932 -118.550410 288 7823ft 120kts
21-Nov-20 14:51 33.983024 -118.588156 288 7825ft 120kts
21-Nov-20 14:52 33.995105 -118.625904 288 7829ft 120kts
21-Nov-20 14:53 34.007179 -118.663679 287 7836ft 120kts
21-Nov-20 14:54 34.019122 -118.701081 287 7927ft 118kts
21-Nov-20 14:55 34.031117 -118.738711 287 7927ft 120kts
21-Nov-20 14:56 34.042555 -118.776741 285 7931ft 120kts
21-Nov-20 14:57 34.052956 -118.815035 285 7934ft 120kts
21-Nov-20 14:58 34.063314 -118.853527 284 7934ft 120kts
21-Nov-20 14:59 34.073137 -118.891769 284 7989ft 119kts
21-Nov-20 15:00 34.083361 -118.930266 284 7988ft 120kts
21-Nov-20 15:01 34.093679 -118.968803 284 7988ft 121kts
21-Nov-20 15:02 34.103976 -119.007563 283 7987ft 121kts
21-Nov-20 15:03 34.114560 -119.046113 293 7985ft 122kts
21-Nov-20 15:04 34.132788 -119.080995 298 7986ft 123kts
21-Nov-20 15:05 34.151669 -119.115455 298 7986ft 122kts
21-Nov-20 15:06 34.170630 -119.149809 298 7986ft 122kts
21-Nov-20 15:07 34.189542 -119.184052 298 7986ft 122kts
21-Nov-20 15:08 34.208391 -119.218195 298 7986ft 122kts
21-Nov-20 15:09 34.227172 -119.252265 298 7986ft 121kts
21-Nov-20 15:10 34.245694 -119.286484 297 7985ft 121kts
21-Nov-20 15:11 34.264280 -119.320656 298 7985ft 121kts
21-Nov-20 15:12 34.282923 -119.354832 298 7986ft 121kts
21-Nov-20 15:13 34.301622 -119.388981 299 7985ft 122kts
21-Nov-20 15:14 34.320410 -119.423242 299 7986ft 122kts
21-Nov-20 15:15 34.339253 -119.457597 299 7986ft 122kts
21-Nov-20 15:16 34.358088 -119.491970 299 7986ft 122kts
21-Nov-20 15:17 34.376853 -119.526248 299 7985ft 122kts
21-Nov-20 15:18 34.395639 -119.560601 299 7962ft 124kts
21-Nov-20 15:19 34.414485 -119.595581 298 7958ft 123kts
21-Nov-20 15:20 34.433283 -119.630449 298 7958ft 123kts
21-Nov-20 15:21 34.452144 -119.665252 298 7961ft 123kts
21-Nov-20 15:22 34.471076 -119.700067 298 7961ft 124kts
21-Nov-20 15:23 34.490042 -119.734923 298 7964ft 123kts
21-Nov-20 15:24 34.507508 -119.770413 278 7968ft 120kts
21-Nov-20 15:25 34.511713 -119.810630 271 7972ft 120kts
21-Nov-20 15:26 34.514706 -119.853075 272 7589ft 131kts
21-Nov-20 15:27 34.517910 -119.897537 272 6990ft 133kts
21-Nov-20 15:28 34.521120 -119.942349 272 6293ft 134kts
21-Nov-20 15:29 34.524203 -119.987441 272 5592ft 134kts
21-Nov-20 15:30 34.527339 -120.032495 272 5043ft 128kts
21-Nov-20 15:31 34.529841 -120.069781 270 5603ft 102kts
21-Nov-20 15:32 34.540802 -120.101903 306 5802ft 127kts
21-Nov-20 15:33 34.566483 -120.134781 309 5306ft 135kts
21-Nov-20 15:34 34.592725 -120.167429 310 4805ft 135kts
21-Nov-20 15:35 34.618896 -120.199985 310 4408ft 131kts
21-Nov-20 15:36 34.644926 -120.232458 310 3948ft 136kts
21-Nov-20 15:37 34.671366 -120.265509 310 3495ft 134kts
21-Nov-20 15:38 34.696269 -120.296603 310 3494ft 126kts
21-Nov-20 15:39 34.720981 -120.326478 320 3495ft 127kts
21-Nov-20 15:40 34.751102 -120.348224 325 3068ft 114kts
21-Nov-20 15:41 34.778186 -120.366882 326 2660ft 110kts
21-Nov-20 15:42 34.803563 -120.384956 325 2516ft 100kts
21-Nov-20 15:43 34.828889 -120.402290 327 1943ft 105kts
21-Nov-20 15:44 34.851903 -120.417231 327 1386ft 83kts
21-Nov-20 15:45 34.872133 -120.430081 331 813ft 81kts
21-Nov-20 15:46 34.889575 -120.442029 316 374ft 66kts
21-Nov-20 15:47 34.897773 -120.450276 2 265ft 12kts
21-Nov-20 15:48 34.897962 -120.450275 1 265ft 5kts
21-Nov-20 15:49 34.897042 -120.446756 116 265ft 11kts
21-Nov-20 15:50 34.896991 -120.446153 311 265ft 0kts

Navigation Log

Ident Type
Flight plan parsing failed, navigation log unavailable